createdAt,value
2019-05-11T00:00:23.932Z,46.70
2019-05-11T00:03:00.141Z,46.50
2019-05-11T00:05:36.622Z,46.50
2019-05-11T00:08:13.109Z,46.50
2019-05-11T00:10:49.469Z,46.60
2019-05-11T00:13:25.653Z,46.60
2019-05-11T00:16:01.876Z,46.60
2019-05-11T00:18:38.198Z,46.60
2019-05-11T00:21:14.831Z,46.60
2019-05-11T00:23:51.116Z,46.50
2019-05-11T00:26:27.627Z,46.60
2019-05-11T00:29:04.139Z,46.80
2019-05-11T00:31:40.695Z,47.00
2019-05-11T00:34:16.679Z,46.90
2019-05-11T00:36:53.010Z,46.80
2019-05-11T00:39:29.021Z,47.00
2019-05-11T00:42:05.325Z,46.90
2019-05-11T00:44:42.111Z,47.00
2019-05-11T00:47:19.521Z,47.00
2019-05-11T00:49:56.130Z,47.00
2019-05-11T00:52:32.553Z,47.20
2019-05-11T00:55:09.177Z,47.10
2019-05-11T00:57:46.077Z,47.40
2019-05-11T01:00:22.409Z,47.20
2019-05-11T01:02:58.098Z,48.00
2019-05-11T01:05:34.520Z,47.40
2019-05-11T01:08:11.729Z,47.40
2019-05-11T01:10:48.209Z,47.50
2019-05-11T01:13:25.572Z,47.50
2019-05-11T01:16:02.004Z,47.60
2019-05-11T01:18:38.101Z,47.80
2019-05-11T01:21:14.562Z,47.60
2019-05-11T01:23:50.972Z,47.80
2019-05-11T01:26:27.071Z,47.80
2019-05-11T01:29:03.672Z,47.80
2019-05-11T01:31:40.524Z,47.90
2019-05-11T01:34:16.948Z,47.90
2019-05-11T01:36:53.065Z,48.00
2019-05-11T01:39:29.039Z,48.00
2019-05-11T01:42:05.737Z,48.20
2019-05-11T01:44:42.293Z,48.30
2019-05-11T01:47:18.372Z,48.10
2019-05-11T01:49:54.950Z,48.40
2019-05-11T01:52:31.100Z,48.30
2019-05-11T01:55:07.956Z,48.20
2019-05-11T01:57:43.960Z,48.30
2019-05-11T02:00:20.306Z,48.20
2019-05-11T02:02:56.198Z,48.40
2019-05-11T02:05:32.839Z,48.40
2019-05-11T02:08:08.746Z,48.50
2019-05-11T02:10:44.869Z,48.30
2019-05-11T02:13:21.253Z,48.50
2019-05-11T02:15:56.925Z,48.40
2019-05-11T02:18:33.051Z,48.70
2019-05-11T02:21:09.294Z,48.60
2019-05-11T02:23:44.994Z,48.60
2019-05-11T02:26:21.376Z,48.60
2019-05-11T02:28:57.562Z,48.60
2019-05-11T02:31:34.199Z,48.60
2019-05-11T02:34:10.567Z,48.50
2019-05-11T02:36:47.685Z,48.70
2019-05-11T02:39:23.664Z,48.70
2019-05-11T02:41:59.689Z,48.70
2019-05-11T02:44:37.993Z,48.80
2019-05-11T02:47:14.611Z,48.60
2019-05-11T02:49:50.411Z,48.90
2019-05-11T02:52:28.186Z,48.90
2019-05-11T02:55:05.269Z,48.90
2019-05-11T02:57:41.801Z,49.00
2019-05-11T03:00:21.797Z,49.10
2019-05-11T03:02:59.017Z,49.00
2019-05-11T03:05:35.108Z,49.10
2019-05-11T03:08:11.279Z,49.20
2019-05-11T03:10:47.345Z,49.20
2019-05-11T03:13:24.114Z,49.20
2019-05-11T03:16:00.806Z,49.30
2019-05-11T03:18:36.772Z,49.10
2019-05-11T03:21:13.071Z,49.30
2019-05-11T03:23:49.518Z,49.20
2019-05-11T03:26:26.005Z,49.20
2019-05-11T03:29:03.385Z,49.30
2019-05-11T03:31:39.292Z,49.30
2019-05-11T03:34:15.523Z,49.40
2019-05-11T03:36:52.272Z,49.40
2019-05-11T03:39:28.765Z,49.50
2019-05-11T03:42:14.512Z,49.40
2019-05-11T03:44:43.173Z,49.40
2019-05-11T03:47:20.115Z,49.80
2019-05-11T03:49:57.380Z,50.10
2019-05-11T03:52:34.101Z,49.40
2019-05-11T03:55:10.726Z,49.40
2019-05-11T03:57:47.032Z,49.40
2019-05-11T04:00:23.833Z,49.40
2019-05-11T04:02:59.891Z,49.50
2019-05-11T04:05:36.620Z,49.40
2019-05-11T04:08:12.906Z,49.60
2019-05-11T04:10:50.053Z,50.30
2019-05-11T04:13:26.466Z,49.60
2019-05-11T04:16:03.131Z,49.60
2019-05-11T04:18:39.499Z,49.50
2019-05-11T04:21:15.450Z,49.40
2019-05-11T04:23:51.387Z,49.50
2019-05-11T04:26:27.674Z,49.50
2019-05-11T04:29:04.181Z,49.40
2019-05-11T04:31:40.494Z,49.40
2019-05-11T04:34:16.227Z,49.60
2019-05-11T04:36:53.145Z,49.60
2019-05-11T04:39:29.202Z,49.60
2019-05-11T04:42:06.036Z,49.70
2019-05-11T04:44:41.867Z,49.70
2019-05-11T04:47:18.168Z,49.70
2019-05-11T04:49:54.600Z,49.60
2019-05-11T04:52:30.760Z,49.50
2019-05-11T04:55:06.656Z,49.80
2019-05-11T04:57:42.546Z,49.90
2019-05-11T05:00:19.146Z,49.80
2019-05-11T05:02:55.629Z,49.80
2019-05-11T05:05:31.795Z,49.90
2019-05-11T05:08:09.753Z,49.80
2019-05-11T05:10:45.917Z,49.90
2019-05-11T05:13:23.240Z,49.80
2019-05-11T05:16:00.040Z,50.00
2019-05-11T05:18:36.523Z,49.90
2019-05-11T05:21:13.098Z,50.00
2019-05-11T05:23:49.097Z,50.00
2019-05-11T05:26:25.322Z,50.10
2019-05-11T05:29:01.746Z,50.10
2019-05-11T05:31:38.641Z,50.10
2019-05-11T05:34:15.109Z,50.10
2019-05-11T05:36:51.359Z,50.10
2019-05-11T05:39:27.947Z,50.10
2019-05-11T05:42:04.204Z,50.10
2019-05-11T05:44:40.561Z,50.10
2019-05-11T05:47:16.670Z,50.10
2019-05-11T05:49:52.873Z,50.10
2019-05-11T05:52:29.726Z,50.30
2019-05-11T05:55:05.641Z,50.40
2019-05-11T05:57:42.608Z,50.50
2019-05-11T06:00:18.876Z,50.30
2019-05-11T06:02:55.245Z,50.30
2019-05-11T06:05:31.134Z,50.30
2019-05-11T06:08:08.048Z,50.20
2019-05-11T06:10:45.321Z,50.20
2019-05-11T06:13:21.932Z,50.30
2019-05-11T06:15:58.388Z,50.20
2019-05-11T06:18:34.450Z,50.20
2019-05-11T06:21:10.161Z,50.20
2019-05-11T06:23:46.686Z,50.20
2019-05-11T06:26:23.554Z,50.20
2019-05-11T06:29:00.191Z,50.20
2019-05-11T06:31:36.734Z,50.20
2019-05-11T06:34:12.593Z,50.20
2019-05-11T06:36:48.763Z,50.80
2019-05-11T06:39:25.243Z,50.40
2019-05-11T06:42:01.501Z,50.60
2019-05-11T06:44:37.637Z,50.70
2019-05-11T06:47:13.994Z,55.50
2019-05-11T06:49:49.994Z,57.40
2019-05-11T06:52:26.120Z,55.50
2019-05-11T06:55:02.425Z,52.00
2019-05-11T06:57:38.946Z,51.50
2019-05-11T07:00:15.433Z,51.50
2019-05-11T07:02:51.143Z,52.50
2019-05-11T07:05:27.110Z,51.40
2019-05-11T07:08:04.086Z,51.20
2019-05-11T07:10:40.563Z,51.20
2019-05-11T07:13:17.222Z,51.10
2019-05-11T07:15:53.274Z,51.10
2019-05-11T07:18:29.525Z,51.00
2019-05-11T07:21:06.076Z,50.90
2019-05-11T07:23:42.119Z,56.00
2019-05-11T07:26:18.097Z,52.00
2019-05-11T07:28:55.768Z,51.20
2019-05-11T07:31:31.844Z,51.10
2019-05-11T07:34:08.446Z,51.10
2019-05-11T07:36:44.717Z,51.10
2019-05-11T07:39:21.562Z,51.20
2019-05-11T07:41:58.536Z,50.90
2019-05-11T07:44:38.714Z,50.90
2019-05-11T07:47:12.853Z,50.80
2019-05-11T07:49:48.997Z,50.80
2019-05-11T07:52:24.986Z,50.80
2019-05-11T07:55:01.473Z,50.80
2019-05-11T07:57:39.017Z,50.70
2019-05-11T08:00:15.212Z,50.70
2019-05-11T08:02:51.503Z,50.80
2019-05-11T08:05:28.556Z,50.50
2019-05-11T08:08:05.692Z,50.60
2019-05-11T08:10:43.058Z,50.60
2019-05-11T08:13:20.024Z,50.60
2019-05-11T08:15:57.804Z,50.70
2019-05-11T08:18:34.504Z,50.60
2019-05-11T08:21:11.141Z,50.70
2019-05-11T08:23:48.399Z,50.60
2019-05-11T08:26:25.098Z,50.60
2019-05-11T08:29:01.085Z,50.70
2019-05-11T08:31:38.459Z,50.60
2019-05-11T08:34:15.127Z,50.60
2019-05-11T08:36:51.261Z,50.70
2019-05-11T08:39:28.882Z,50.60
2019-05-11T08:42:08.561Z,50.60
2019-05-11T08:44:44.559Z,50.60
2019-05-11T08:47:21.443Z,50.60
2019-05-11T08:49:58.933Z,50.60
2019-05-11T08:52:35.441Z,50.60
2019-05-11T08:55:12.432Z,50.70
2019-05-11T08:57:48.769Z,50.60
2019-05-11T09:00:25.644Z,50.70
2019-05-11T09:03:02.637Z,50.80
2019-05-11T09:05:39.231Z,50.60
2019-05-11T09:08:15.853Z,50.70
2019-05-11T09:10:51.885Z,50.80
2019-05-11T09:13:32.578Z,50.70
2019-05-11T09:16:08.396Z,52.50
2019-05-11T09:18:48.225Z,53.00
2019-05-11T09:21:27.989Z,53.60
2019-05-11T09:24:03.622Z,54.00
2019-05-11T09:26:40.726Z,54.90
2019-05-11T09:29:18.025Z,54.90
2019-05-11T09:31:54.073Z,54.90
2019-05-11T09:34:30.156Z,55.10
2019-05-11T09:37:07.892Z,54.40
2019-05-11T09:39:44.579Z,54.00
2019-05-11T09:42:21.059Z,53.90
2019-05-11T09:44:57.818Z,54.50
2019-05-11T09:47:34.845Z,54.60
2019-05-11T09:50:11.500Z,54.50
2019-05-11T09:52:48.890Z,54.60
2019-05-11T09:55:25.588Z,54.80
2019-05-11T09:58:01.545Z,55.00
2019-05-11T10:00:40.761Z,55.60
2019-05-11T10:03:18.781Z,55.70
2019-05-11T10:05:58.066Z,56.70
2019-05-11T10:08:34.589Z,56.50
2019-05-11T10:11:11.216Z,56.60
2019-05-11T10:13:47.766Z,56.10
2019-05-11T10:16:24.237Z,55.90
2019-05-11T10:19:00.020Z,55.50
2019-05-11T10:21:38.401Z,55.30
2019-05-11T10:24:14.504Z,55.00
2019-05-11T10:26:51.666Z,55.10
2019-05-11T10:29:28.961Z,54.90
2019-05-11T10:32:05.105Z,55.00
2019-05-11T10:34:41.453Z,54.90
2019-05-11T10:37:17.771Z,55.00
2019-05-11T10:39:54.220Z,55.10
2019-05-11T10:42:30.668Z,55.20
2019-05-11T10:45:09.083Z,55.20
2019-05-11T10:47:45.748Z,55.10
2019-05-11T10:50:21.935Z,55.00
2019-05-11T10:52:59.049Z,55.00
2019-05-11T10:55:38.674Z,55.10
2019-05-11T10:58:18.157Z,55.20
2019-05-11T11:00:53.312Z,55.30
2019-05-11T11:03:29.533Z,55.20
2019-05-11T11:06:08.290Z,55.20
2019-05-11T11:08:44.288Z,55.10
2019-05-11T11:11:21.073Z,55.00
2019-05-11T11:13:58.595Z,54.80
2019-05-11T11:16:39.679Z,54.80
2019-05-11T11:19:14.921Z,54.80
2019-05-11T11:21:52.040Z,54.70
2019-05-11T11:24:29.492Z,54.70
2019-05-11T11:27:08.565Z,55.20
2019-05-11T11:29:44.112Z,54.50
2019-05-11T11:32:24.925Z,54.30
2019-05-11T11:35:01.502Z,54.20
2019-05-11T11:37:38.723Z,54.40
2019-05-11T11:40:17.757Z,54.10
2019-05-11T11:42:54.005Z,54.00
2019-05-11T11:45:31.237Z,54.00
2019-05-11T11:48:08.678Z,53.90
2019-05-11T11:50:45.418Z,53.90
2019-05-11T11:53:21.897Z,53.80
2019-05-11T11:55:58.734Z,53.80
2019-05-11T11:58:35.461Z,53.70
2019-05-11T12:01:11.976Z,53.70
2019-05-11T12:03:48.733Z,53.70
2019-05-11T12:06:28.006Z,53.50
2019-05-11T12:09:05.657Z,53.40
2019-05-11T12:11:42.486Z,53.50
2019-05-11T12:14:18.863Z,53.40
2019-05-11T12:17:06.993Z,53.20
2019-05-11T12:19:40.984Z,53.20
2019-05-11T12:22:18.846Z,53.30
2019-05-11T12:24:54.892Z,53.30
2019-05-11T12:27:31.528Z,53.30
2019-05-11T12:30:09.789Z,53.20
2019-05-11T12:32:48.910Z,53.20
2019-05-11T12:35:25.576Z,53.10
2019-05-11T12:38:02.158Z,53.10
2019-05-11T12:40:38.929Z,52.90
2019-05-11T12:43:15.017Z,52.70
2019-05-11T12:45:51.478Z,52.70
2019-05-11T12:48:28.609Z,52.60
2019-05-11T12:51:05.302Z,52.70
2019-05-11T12:53:41.163Z,52.50
2019-05-11T12:56:18.988Z,52.50
2019-05-11T12:58:55.372Z,52.40
2019-05-11T13:01:31.297Z,52.40
2019-05-11T13:04:08.964Z,52.50
2019-05-11T13:06:47.713Z,52.30
2019-05-11T13:09:23.437Z,52.20
2019-05-11T13:11:59.851Z,52.10
2019-05-11T13:14:38.016Z,52.10
2019-05-11T13:17:13.420Z,52.10
2019-05-11T13:19:49.921Z,52.00
2019-05-11T13:22:25.684Z,52.10
2019-05-11T13:25:02.105Z,52.80
2019-05-11T13:27:38.895Z,51.90
2019-05-11T13:30:15.572Z,51.90
2019-05-11T13:32:51.900Z,51.80
2019-05-11T13:35:28.685Z,51.80
2019-05-11T13:38:05.449Z,51.80
2019-05-11T13:40:42.374Z,51.70
2019-05-11T13:43:19.026Z,51.70
2019-05-11T13:45:58.427Z,51.70
2019-05-11T13:48:34.634Z,51.60
2019-05-11T13:51:10.849Z,51.60
2019-05-11T13:53:48.271Z,51.70
2019-05-11T13:56:24.764Z,52.00
2019-05-11T13:59:10.420Z,51.70
2019-05-11T14:01:47.597Z,51.80
2019-05-11T14:04:23.883Z,51.60
2019-05-11T14:07:00.261Z,51.60
2019-05-11T14:09:38.022Z,51.50
2019-05-11T14:12:14.602Z,51.40
2019-05-11T14:14:50.470Z,51.40
2019-05-11T14:17:29.776Z,51.30
2019-05-11T14:20:05.025Z,51.20
2019-05-11T14:22:42.183Z,51.20
2019-05-11T14:25:19.468Z,51.10
2019-05-11T14:27:55.774Z,51.10
2019-05-11T14:30:31.548Z,51.00
2019-05-11T14:33:09.146Z,51.40
2019-05-11T14:35:45.549Z,51.20
2019-05-11T14:38:21.692Z,51.00
2019-05-11T14:40:58.583Z,50.90
2019-05-11T14:43:35.543Z,50.90
2019-05-11T14:46:11.872Z,50.90
2019-05-11T14:48:48.587Z,50.90
2019-05-11T14:51:25.445Z,50.70
2019-05-11T14:54:01.826Z,50.70
2019-05-11T14:56:38.223Z,50.70
2019-05-11T14:59:18.179Z,50.70
2019-05-11T15:01:54.637Z,50.70
2019-05-11T15:04:30.859Z,50.60
2019-05-11T15:07:08.480Z,50.60
2019-05-11T15:09:47.943Z,50.60
2019-05-11T15:12:23.506Z,50.60
2019-05-11T15:14:59.944Z,50.50
2019-05-11T15:17:36.253Z,50.50
2019-05-11T15:20:13.652Z,50.70
2019-05-11T15:22:50.258Z,50.60
2019-05-11T15:25:28.974Z,50.60
2019-05-11T15:28:05.753Z,50.70
2019-05-11T15:30:42.202Z,50.50
2019-05-11T15:33:18.852Z,50.60
2019-05-11T15:35:55.580Z,50.50
2019-05-11T15:38:33.058Z,50.60
2019-05-11T15:41:08.726Z,50.50
2019-05-11T15:43:47.757Z,50.50
2019-05-11T15:46:23.780Z,50.50
2019-05-11T15:49:03.481Z,50.50
2019-05-11T15:51:41.054Z,50.40
2019-05-11T15:54:18.351Z,50.50
2019-05-11T15:56:54.409Z,50.40
2019-05-11T15:59:30.988Z,50.30
2019-05-11T16:02:08.577Z,50.40
2019-05-11T16:04:45.221Z,50.30
2019-05-11T16:07:20.932Z,50.30
2019-05-11T16:09:57.837Z,50.20
2019-05-11T16:12:35.085Z,50.30
2019-05-11T16:15:12.075Z,50.60
2019-05-11T16:17:48.599Z,50.20
2019-05-11T16:20:28.110Z,50.30
2019-05-11T16:23:04.452Z,50.10
2019-05-11T16:25:41.052Z,50.90
2019-05-11T16:28:19.218Z,50.20
2019-05-11T16:30:58.389Z,50.10
2019-05-11T16:33:34.754Z,50.00
2019-05-11T16:36:11.233Z,50.10
2019-05-11T16:38:48.380Z,50.00
2019-05-11T16:41:24.305Z,50.00
2019-05-11T16:44:01.167Z,50.00
2019-05-11T16:46:38.905Z,49.90
2019-05-11T16:49:26.201Z,50.00
2019-05-11T16:51:55.553Z,49.90
2019-05-11T16:54:31.484Z,50.00
2019-05-11T16:57:08.636Z,49.90
2019-05-11T16:59:44.830Z,49.90
2019-05-11T17:02:21.124Z,49.90
2019-05-11T17:04:58.187Z,49.80
2019-05-11T17:07:34.501Z,49.80
2019-05-11T17:10:10.820Z,49.80
2019-05-11T17:12:50.531Z,49.70
2019-05-11T17:15:28.927Z,49.70
2019-05-11T17:18:05.137Z,49.80
2019-05-11T17:20:41.566Z,49.70
2019-05-11T17:23:18.483Z,49.70
2019-05-11T17:25:57.697Z,49.70
2019-05-11T17:28:33.488Z,49.90
2019-05-11T17:31:10.415Z,50.20
2019-05-11T17:33:52.014Z,50.20
2019-05-11T17:36:28.498Z,50.20
2019-05-11T17:39:07.813Z,50.20
2019-05-11T17:41:43.696Z,50.10
2019-05-11T17:44:19.857Z,50.10
2019-05-11T17:46:57.845Z,50.30
2019-05-11T17:49:34.343Z,50.00
2019-05-11T17:52:10.374Z,49.70
2019-05-11T17:54:47.794Z,49.50
2019-05-11T17:57:24.092Z,49.50
2019-05-11T18:00:02.266Z,49.50
2019-05-11T18:02:38.970Z,49.40
2019-05-11T18:05:17.957Z,49.70
2019-05-11T18:07:54.046Z,49.50
2019-05-11T18:10:30.611Z,49.20
2019-05-11T18:13:06.795Z,49.10
2019-05-11T18:15:42.999Z,49.30
2019-05-11T18:18:19.713Z,49.70
2019-05-11T18:20:57.911Z,49.50
2019-05-11T18:23:34.805Z,49.10
2019-05-11T18:26:10.944Z,49.00
2019-05-11T18:28:48.237Z,48.80
2019-05-11T18:31:24.385Z,49.00
2019-05-11T18:34:00.845Z,48.80
2019-05-11T18:36:38.212Z,48.70
2019-05-11T18:39:14.553Z,48.70
2019-05-11T18:41:50.224Z,48.70
2019-05-11T18:44:26.675Z,48.80
2019-05-11T18:47:03.714Z,48.70
2019-05-11T18:49:39.529Z,48.80
2019-05-11T18:52:15.728Z,48.80
2019-05-11T18:54:51.595Z,48.70
2019-05-11T18:57:28.233Z,48.70
2019-05-11T19:00:07.990Z,49.00
2019-05-11T19:02:43.986Z,48.70
2019-05-11T19:05:20.445Z,48.70
2019-05-11T19:07:58.513Z,48.70
2019-05-11T19:10:34.885Z,48.60
2019-05-11T19:13:11.010Z,48.60
2019-05-11T19:15:48.694Z,48.60
2019-05-11T19:18:25.452Z,48.50
2019-05-11T19:21:01.413Z,48.50
2019-05-11T19:23:37.991Z,48.40
2019-05-11T19:26:17.656Z,48.80
2019-05-11T19:28:53.372Z,49.70
2019-05-11T19:31:29.872Z,50.20
2019-05-11T19:34:05.629Z,50.50
2019-05-11T19:36:41.934Z,50.70
2019-05-11T19:39:19.390Z,50.20
2019-05-11T19:41:57.983Z,49.50
2019-05-11T19:44:33.484Z,49.10
2019-05-11T19:47:09.680Z,49.40
2019-05-11T19:49:47.898Z,48.80
2019-05-11T19:52:23.720Z,48.70
2019-05-11T19:54:59.953Z,48.60
2019-05-11T19:57:38.498Z,48.50
2019-05-11T20:00:14.656Z,48.50
2019-05-11T20:02:50.533Z,48.50
2019-05-11T20:05:28.784Z,48.50
2019-05-11T20:08:07.747Z,48.50
2019-05-11T20:10:44.027Z,48.40
2019-05-11T20:13:20.332Z,48.30
2019-05-11T20:15:57.800Z,48.10
2019-05-11T20:18:34.523Z,48.00
2019-05-11T20:21:19.248Z,48.00
2019-05-11T20:23:50.223Z,47.90
2019-05-11T20:26:28.558Z,48.50
2019-05-11T20:29:08.142Z,47.80
2019-05-11T20:31:43.794Z,47.60
2019-05-11T20:34:20.189Z,47.60
2019-05-11T20:36:58.650Z,47.60
2019-05-11T20:39:34.928Z,47.50
2019-05-11T20:42:11.526Z,47.40
2019-05-11T20:44:50.513Z,47.40
2019-05-11T20:47:28.735Z,47.40
2019-05-11T20:50:07.757Z,47.30
2019-05-11T20:52:44.807Z,47.30
2019-05-11T20:55:20.752Z,47.30
2019-05-11T20:57:58.254Z,47.20
2019-05-11T21:00:35.156Z,47.20
2019-05-11T21:03:12.644Z,47.10
2019-05-11T21:05:48.648Z,47.10
2019-05-11T21:08:24.826Z,47.10
2019-05-11T21:11:01.298Z,47.00
2019-05-11T21:13:38.581Z,47.00
2019-05-11T21:16:15.019Z,46.90
2019-05-11T21:18:52.665Z,46.90
2019-05-11T21:21:30.426Z,46.90
2019-05-11T21:24:08.525Z,46.80
2019-05-11T21:26:44.556Z,46.70
2019-05-11T21:29:20.286Z,46.70
2019-05-11T21:31:58.746Z,46.70
2019-05-11T21:34:38.206Z,46.60
2019-05-11T21:37:13.968Z,46.60
2019-05-11T21:39:51.194Z,46.60
2019-05-11T21:42:28.162Z,46.60
2019-05-11T21:45:04.396Z,46.50
2019-05-11T21:47:41.000Z,46.50
2019-05-11T21:50:19.018Z,46.50
2019-05-11T21:52:55.600Z,47.50
2019-05-11T21:55:31.834Z,48.30
2019-05-11T21:58:09.190Z,48.90
2019-05-11T22:00:47.752Z,50.10
2019-05-11T22:03:23.775Z,50.00
2019-05-11T22:06:08.622Z,50.40
2019-05-11T22:08:48.285Z,50.50
2019-05-11T22:11:23.700Z,51.20
2019-05-11T22:14:00.239Z,51.10
2019-05-11T22:16:38.675Z,51.50
2019-05-11T22:19:14.601Z,51.50
2019-05-11T22:21:50.297Z,51.60
2019-05-11T22:24:28.285Z,51.80
2019-05-11T22:27:04.820Z,52.00
2019-05-11T22:29:41.607Z,52.30
2019-05-11T22:32:18.174Z,52.60
2019-05-11T22:34:55.033Z,52.80
2019-05-11T22:37:31.367Z,52.90
2019-05-11T22:40:11.773Z,53.00
2019-05-11T22:42:48.634Z,53.80
2019-05-11T22:45:25.100Z,53.70
2019-05-11T22:48:01.964Z,54.10
2019-05-11T22:50:38.476Z,54.20
2019-05-11T22:53:14.876Z,54.30
2019-05-11T22:55:51.466Z,54.30
2019-05-11T22:58:27.984Z,54.50
2019-05-11T23:01:08.324Z,54.40
2019-05-11T23:03:44.435Z,54.70
2019-05-11T23:06:20.582Z,54.80
2019-05-11T23:08:58.701Z,54.80
2019-05-11T23:11:37.881Z,54.80
2019-05-11T23:14:14.536Z,54.90
2019-05-11T23:16:50.853Z,55.00
2019-05-11T23:19:27.910Z,54.90
2019-05-11T23:22:05.528Z,54.90
2019-05-11T23:24:43.439Z,54.90
2019-05-11T23:27:19.661Z,55.20
2019-05-11T23:29:58.103Z,55.10
2019-05-11T23:32:34.823Z,55.00
2019-05-11T23:35:10.926Z,55.20
2019-05-11T23:37:49.495Z,55.50
2019-05-11T23:40:28.323Z,55.50
2019-05-11T23:43:04.436Z,55.50
2019-05-11T23:45:41.200Z,55.40
2019-05-11T23:48:17.474Z,55.20
2019-05-11T23:50:53.244Z,54.30
2019-05-11T23:53:30.073Z,54.30
2019-05-11T23:56:06.252Z,54.20
2019-05-11T23:58:42.873Z,54.00
